General Aviation Weather

Text Reports

Enter one or more of the following location identifiers separated by a space:

Zip Code, Four-Character ICAO or Three-Character IATA airport codes.

METAR - Aviation Routine Weather Report
KPTB - Petersburg, Virginia
Updated at 5:15 PM GMT on October 25, 2014 (1:15 PM EDT):
METAR KPTB 251715Z AUTO 15003KT 10SM CLR 20/02 A2994 RMK AO2 T02000017
TAF - Terminal Area Forecast
KPTB - Petersburg, Virginia
Updated at 5:15 PM GMT on October 25, 2014 (1:15 PM EDT):
No TAF is currently available for this location.
Decoded:
No decoded TAF is available.
PIREP - Pilot Weather Report
KPTB - Petersburg, Virginia
Updated at 5:15 PM GMT on October 25, 2014 (1:15 PM EDT):
No PIREP is currently available for this location.
AIRMET - Airmens Meteorological Information
KPTB - Petersburg, Virginia
Updated at 5:15 PM GMT on October 25, 2014 (1:15 PM EDT):
No AIRMET is currently available for this location.
SIGMET - Significant Meteorological Information
KPTB - Petersburg, Virginia
Updated at 5:15 PM GMT on October 25, 2014 (1:15 PM EDT):
No SIGMET is currently available for this location.
NOTAM - Notice to Airmen
KPTB - Petersburg, Virginia
Updated at 5:15 PM GMT on October 25, 2014 (1:15 PM EDT):
No NOTAM is currently available for this location.
Forecast Area
KPTB - Petersburg, Virginia
Updated at 5:15 PM GMT on October 25, 2014 (1:15 PM EDT):
No NOTAM is currently available for this location.
Aviation Weather Maps